createdAt,value
2023-02-13T00:02:17.124Z,95.74
2023-02-13T00:04:43.709Z,96.60
2023-02-13T00:07:11.917Z,96.46
2023-02-13T00:09:38.875Z,97.76
2023-02-13T00:14:41.565Z,98.39
2023-02-13T00:17:08.154Z,97.96
2023-02-13T00:19:34.716Z,97.08
2023-02-13T00:22:01.243Z,96.25
2023-02-13T00:27:00.327Z,94.96
2023-02-13T00:29:26.996Z,94.66
2023-02-13T00:31:53.616Z,93.34
2023-02-13T00:44:28.040Z,94.34
2023-02-13T00:49:38.511Z,94.31
2023-02-13T00:52:05.037Z,94.56
2023-02-13T00:54:31.573Z,93.77
2023-02-13T00:56:58.116Z,92.65
2023-02-13T00:59:24.822Z,92.99
2023-02-13T01:01:51.447Z,94.00
2023-02-13T01:04:17.984Z,95.12
2023-02-13T01:06:44.605Z,95.44
2023-02-13T01:09:11.692Z,95.35
2023-02-13T01:11:38.286Z,95.09
2023-02-13T01:14:04.846Z,94.31
2023-02-13T01:16:31.349Z,93.97
2023-02-13T01:18:57.889Z,94.08
2023-02-13T01:21:24.563Z,93.85
2023-02-13T01:23:51.763Z,93.88
2023-02-13T01:26:23.943Z,94.22
2023-02-13T01:28:54.959Z,94.33
2023-02-13T01:31:22.386Z,93.28
2023-02-13T01:33:48.965Z,93.88
2023-02-13T01:36:15.805Z,94.44
2023-02-13T01:38:42.584Z,94.34
2023-02-13T01:41:10.117Z,94.54
2023-02-13T01:43:53.548Z,94.28
2023-02-13T01:46:26.226Z,94.80
2023-02-13T01:48:56.239Z,95.24
2023-02-13T01:51:27.055Z,94.91
2023-02-13T01:54:00.567Z,95.47
2023-02-13T01:56:33.864Z,95.27
2023-02-13T01:59:04.828Z,95.33
2023-02-13T02:01:32.678Z,94.98
2023-02-13T02:04:25.369Z,94.79
2023-02-13T02:07:00.402Z,95.25
2023-02-13T02:09:32.206Z,94.00
2023-02-13T02:12:15.002Z,94.10
2023-02-13T02:14:42.532Z,95.00
2023-02-13T02:17:10.204Z,94.47
2023-02-13T02:20:01.702Z,94.28
2023-02-13T02:23:00.088Z,94.05
2023-02-13T02:25:54.187Z,94.16
2023-02-13T02:28:20.655Z,93.00
2023-02-13T02:31:30.127Z,93.13
2023-02-13T02:33:56.657Z,92.36
2023-02-13T02:36:23.196Z,92.61
2023-02-13T02:39:10.662Z,92.49
2023-02-13T02:41:48.489Z,93.21
2023-02-13T02:44:42.711Z,93.79
2023-02-13T02:47:50.516Z,93.63
2023-02-13T02:50:25.926Z,94.38
2023-02-13T02:53:14.089Z,93.57
2023-02-13T02:55:52.809Z,94.57
2023-02-13T02:59:02.765Z,94.77
2023-02-13T03:01:51.090Z,93.92
2023-02-13T03:04:40.001Z,93.34
2023-02-13T03:07:09.712Z,92.97
2023-02-13T03:10:00.195Z,93.80
2023-02-13T03:12:54.371Z,93.73
2023-02-13T03:15:22.542Z,93.64
2023-02-13T03:18:07.810Z,93.46
2023-02-13T03:21:05.603Z,93.17
2023-02-13T03:24:00.375Z,93.39
2023-02-13T03:26:50.810Z,92.98
2023-02-13T03:30:11.847Z,93.24
2023-02-13T03:33:10.447Z,93.21
2023-02-13T03:36:22.912Z,92.39
2023-02-13T03:39:03.068Z,93.11
2023-02-13T03:41:47.475Z,93.14
2023-02-13T03:44:18.345Z,92.79
2023-02-13T03:50:08.375Z,92.67
2023-02-13T03:52:43.951Z,92.79
2023-02-13T03:55:43.247Z,92.17
2023-02-13T03:58:34.329Z,91.66
2023-02-13T04:01:05.316Z,92.26
2023-02-13T04:03:46.667Z,92.36
2023-02-13T04:06:16.826Z,91.79
2023-02-13T04:08:43.578Z,92.06
2023-02-13T04:11:13.678Z,92.41
2023-02-13T04:13:48.480Z,92.25
2023-02-13T04:16:33.439Z,92.31
2023-02-13T04:19:01.370Z,92.34
2023-02-13T04:21:28.126Z,91.65
2023-02-13T04:23:54.620Z,91.51
2023-02-13T04:26:23.446Z,91.67
2023-02-13T04:28:49.965Z,92.04
2023-02-13T04:31:16.612Z,91.94
2023-02-13T04:33:43.245Z,92.03
2023-02-13T04:36:09.839Z,91.18
2023-02-13T04:38:36.373Z,90.61
2023-02-13T04:41:02.980Z,90.91
2023-02-13T04:43:29.562Z,90.80
2023-02-13T04:45:56.260Z,91.01
2023-02-13T04:50:54.444Z,89.47
2023-02-13T04:53:21.009Z,90.42
2023-02-13T04:55:47.530Z,90.99
2023-02-13T04:58:14.130Z,90.99
2023-02-13T05:00:40.821Z,90.64
2023-02-13T05:03:09.755Z,90.86
2023-02-13T05:05:36.343Z,91.06
2023-02-13T05:08:02.909Z,90.75
2023-02-13T05:10:29.585Z,91.22
2023-02-13T05:12:56.272Z,91.65
2023-02-13T05:15:23.758Z,92.25
2023-02-13T05:17:50.669Z,92.17
2023-02-13T05:20:17.991Z,91.42
2023-02-13T05:23:07.497Z,91.74
2023-02-13T05:25:35.410Z,92.32
2023-02-13T05:28:02.059Z,92.02
2023-02-13T05:30:28.673Z,91.31
2023-02-13T05:32:55.260Z,91.32
2023-02-13T05:35:23.052Z,90.99
2023-02-13T05:37:49.634Z,89.67
2023-02-13T05:42:55.296Z,90.08
2023-02-13T05:45:21.870Z,90.35
2023-02-13T05:47:48.389Z,90.60
2023-02-13T05:50:15.059Z,90.40
2023-02-13T05:52:41.631Z,90.18
2023-02-13T05:55:08.321Z,91.23
2023-02-13T05:57:34.975Z,92.19
2023-02-13T06:00:01.613Z,92.91
2023-02-13T06:02:28.171Z,94.18
2023-02-13T06:09:59.668Z,96.88
2023-02-13T06:12:26.391Z,97.41
2023-02-13T06:14:52.942Z,96.48
2023-02-13T06:19:50.699Z,95.89
2023-02-13T06:22:17.204Z,96.46
2023-02-13T06:24:43.730Z,96.10
2023-02-13T06:27:10.297Z,95.73
2023-02-13T06:29:36.918Z,95.99
2023-02-13T06:32:03.576Z,95.96
2023-02-13T06:34:30.190Z,95.48
2023-02-13T06:36:56.808Z,95.70
2023-02-13T06:39:23.315Z,95.54
2023-02-13T06:41:49.801Z,95.36
2023-02-13T06:44:16.306Z,95.00
2023-02-13T06:46:42.913Z,94.96
2023-02-13T06:49:10.052Z,94.85
2023-02-13T06:51:36.589Z,92.08
2023-02-13T06:54:03.110Z,91.37
2023-02-13T06:56:29.849Z,90.02
2023-02-13T06:58:56.344Z,88.63
2023-02-13T07:01:22.919Z,89.63
2023-02-13T07:03:49.525Z,89.99
2023-02-13T07:06:22.114Z,88.35
2023-02-13T07:08:51.503Z,90.11
2023-02-13T07:11:22.502Z,89.54
2023-02-13T07:13:49.577Z,91.23
2023-02-13T07:16:16.353Z,91.75
2023-02-13T07:18:42.965Z,92.81
2023-02-13T07:21:09.499Z,92.99
2023-02-13T07:23:36.104Z,93.98
2023-02-13T07:26:02.894Z,94.01
2023-02-13T07:28:30.066Z,93.39
2023-02-13T07:30:57.616Z,93.75
2023-02-13T07:33:24.592Z,93.93
2023-02-13T07:35:52.498Z,94.49
2023-02-13T07:38:19.608Z,95.17
2023-02-13T07:40:46.261Z,94.66
2023-02-13T07:43:13.512Z,94.80
2023-02-13T07:45:40.123Z,94.13
2023-02-13T07:50:39.511Z,92.07
2023-02-13T07:53:06.053Z,92.31
2023-02-13T07:55:32.881Z,92.78
2023-02-13T07:58:00.935Z,93.26
2023-02-13T08:00:27.618Z,93.78
2023-02-13T08:02:54.162Z,93.65
2023-02-13T08:05:20.846Z,92.78
2023-02-13T08:10:37.381Z,93.30
2023-02-13T08:13:04.795Z,93.52
2023-02-13T08:15:31.420Z,93.85
2023-02-13T08:17:57.980Z,93.26
2023-02-13T08:20:25.035Z,92.13
2023-02-13T08:22:51.908Z,93.24
2023-02-13T08:25:19.759Z,92.95
2023-02-13T08:27:47.059Z,92.44
2023-02-13T08:30:15.470Z,91.74
2023-02-13T08:32:53.491Z,91.46
2023-02-13T08:35:21.416Z,91.33
2023-02-13T08:37:48.223Z,91.20
2023-02-13T08:40:14.959Z,90.31
2023-02-13T08:42:41.682Z,89.66
2023-02-13T08:45:10.581Z,88.60
2023-02-13T08:47:39.884Z,87.95
2023-02-13T08:50:07.252Z,87.36
2023-02-13T08:52:34.259Z,87.12
2023-02-13T08:55:00.787Z,86.23
2023-02-13T08:57:27.424Z,85.17
2023-02-13T08:59:53.942Z,84.50
2023-02-13T09:02:20.519Z,83.73
2023-02-13T09:04:47.077Z,82.54
2023-02-13T09:07:13.637Z,80.94
2023-02-13T09:09:40.192Z,80.89
2023-02-13T09:12:06.767Z,80.02
2023-02-13T09:14:33.815Z,78.85
2023-02-13T09:17:00.441Z,78.70
2023-02-13T09:19:27.018Z,78.03
2023-02-13T09:21:53.555Z,77.52
2023-02-13T09:24:20.157Z,76.58
2023-02-13T09:29:20.179Z,74.18
2023-02-13T09:31:46.854Z,74.79
2023-02-13T09:34:13.493Z,74.68
2023-02-13T09:36:40.078Z,73.60
2023-02-13T09:39:06.603Z,71.54
2023-02-13T09:44:34.976Z,71.54
2023-02-13T09:47:20.627Z,72.31
2023-02-13T09:49:54.389Z,69.62
2023-02-13T09:54:52.202Z,67.60
2023-02-13T10:00:13.458Z,67.24
2023-02-13T10:05:43.820Z,66.30
2023-02-13T10:08:35.914Z,65.69
2023-02-13T10:11:39.360Z,65.92
2023-02-13T10:14:32.763Z,67.03
2023-02-13T10:17:06.374Z,67.65
2023-02-13T10:19:43.046Z,68.89
2023-02-13T10:22:14.224Z,70.05
2023-02-13T10:24:57.513Z,68.71
2023-02-13T10:27:26.538Z,68.35
2023-02-13T10:30:19.066Z,68.67
2023-02-13T10:32:49.372Z,69.59
2023-02-13T10:35:18.438Z,69.69
2023-02-13T10:37:51.207Z,71.01
2023-02-13T10:40:19.177Z,70.84
2023-02-13T10:42:52.887Z,69.91
2023-02-13T10:45:37.785Z,70.01
2023-02-13T10:48:19.597Z,68.94
2023-02-13T10:51:10.008Z,69.80
2023-02-13T10:53:51.575Z,68.30
2023-02-13T10:56:21.165Z,68.54
2023-02-13T10:59:15.103Z,68.07
2023-02-13T11:01:56.511Z,69.03
2023-02-13T11:04:23.770Z,68.85
2023-02-13T11:07:00.119Z,68.31
2023-02-13T11:09:27.832Z,65.73
2023-02-13T11:11:54.757Z,65.11
2023-02-13T11:14:22.531Z,64.45
2023-02-13T11:17:05.371Z,64.55
2023-02-13T11:19:40.298Z,63.56
2023-02-13T11:25:17.092Z,62.04
2023-02-13T11:27:45.003Z,61.96
2023-02-13T11:30:23.226Z,62.33
2023-02-13T11:33:04.555Z,62.00
2023-02-13T11:35:34.625Z,61.57
2023-02-13T11:38:10.376Z,60.54
2023-02-13T11:40:38.448Z,60.09
2023-02-13T11:43:08.500Z,58.46
2023-02-13T11:45:35.960Z,59.21
2023-02-13T11:48:09.671Z,58.11
2023-02-13T11:50:37.828Z,58.21
2023-02-13T11:53:23.846Z,58.55
2023-02-13T11:56:15.015Z,57.05
2023-02-13T12:01:21.797Z,56.67
2023-02-13T12:04:16.527Z,55.61
2023-02-13T12:07:00.962Z,55.64
2023-02-13T12:09:29.501Z,56.10
2023-02-13T12:12:00.785Z,56.44
2023-02-13T12:14:31.879Z,56.87
2023-02-13T12:17:12.333Z,56.24
2023-02-13T12:19:44.370Z,55.51
2023-02-13T12:22:41.745Z,56.36
2023-02-13T12:25:30.271Z,54.51
2023-02-13T12:28:42.074Z,51.92
2023-02-13T12:31:34.121Z,52.26
2023-02-13T12:34:37.339Z,51.35
2023-02-13T12:37:19.958Z,50.71
2023-02-13T12:43:45.121Z,52.62
2023-02-13T12:46:41.107Z,51.18
2023-02-13T12:49:29.169Z,51.36
2023-02-13T12:52:21.910Z,51.54
2023-02-13T12:55:09.833Z,52.02
2023-02-13T12:58:16.704Z,53.34
2023-02-13T13:00:52.769Z,52.30
2023-02-13T13:03:40.970Z,51.42
2023-02-13T13:06:36.386Z,51.94
2023-02-13T13:09:23.085Z,52.48
2023-02-13T13:12:14.021Z,51.15
2023-02-13T13:15:08.788Z,51.88
2023-02-13T13:17:41.116Z,51.77
2023-02-13T13:20:45.178Z,51.20
2023-02-13T13:23:18.352Z,51.57
2023-02-13T13:26:03.542Z,51.72
2023-02-13T13:28:38.029Z,51.52
2023-02-13T13:31:06.002Z,51.86
2023-02-13T13:33:34.558Z,51.33
2023-02-13T13:36:01.057Z,51.46
2023-02-13T13:38:36.412Z,50.96
2023-02-13T13:41:17.108Z,52.06
2023-02-13T13:43:56.199Z,52.94
2023-02-13T13:46:44.597Z,52.79
2023-02-13T13:49:29.961Z,53.17
2023-02-13T13:52:24.345Z,53.53
2023-02-13T13:54:54.498Z,53.72
2023-02-13T13:57:47.751Z,53.91
2023-02-13T14:00:15.808Z,54.31
2023-02-13T14:02:49.706Z,54.73
2023-02-13T14:05:32.472Z,53.83
2023-02-13T14:08:04.313Z,53.47
2023-02-13T14:10:30.795Z,54.46
2023-02-13T14:12:57.304Z,55.39
2023-02-13T14:15:42.622Z,55.43
2023-02-13T14:18:15.200Z,55.72
2023-02-13T14:20:50.928Z,56.73
2023-02-13T14:26:33.640Z,57.10
2023-02-13T14:29:11.397Z,57.35
2023-02-13T14:31:42.183Z,56.81
2023-02-13T14:34:11.703Z,57.09
2023-02-13T14:36:42.133Z,56.91
2023-02-13T14:39:30.059Z,56.85
2023-02-13T14:42:02.196Z,57.33
2023-02-13T14:44:49.457Z,57.54
2023-02-13T14:47:25.059Z,57.88
2023-02-13T14:49:52.797Z,57.87
2023-02-13T14:52:26.485Z,57.84
2023-02-13T14:55:06.974Z,58.12
2023-02-13T14:57:39.108Z,58.32
2023-02-13T15:00:43.529Z,58.84
2023-02-13T15:03:31.448Z,59.88
2023-02-13T15:06:03.684Z,59.60
2023-02-13T15:08:36.822Z,60.41
2023-02-13T15:11:03.478Z,60.07
2023-02-13T15:16:14.760Z,60.69
2023-02-13T15:18:52.884Z,60.61
2023-02-13T15:21:22.873Z,60.18
2023-02-13T15:23:55.774Z,60.87
2023-02-13T15:26:28.834Z,61.60
2023-02-13T15:29:25.899Z,61.83
2023-02-13T15:31:54.786Z,62.07
2023-02-13T15:34:28.287Z,62.25
2023-02-13T15:36:56.213Z,62.55
2023-02-13T15:39:30.841Z,62.82
2023-02-13T15:42:02.720Z,62.99
2023-02-13T15:44:32.956Z,63.15
2023-02-13T15:47:08.268Z,63.25
2023-02-13T15:52:36.586Z,66.05
2023-02-13T15:55:03.414Z,64.60
2023-02-13T15:57:30.297Z,64.82
2023-02-13T15:59:58.971Z,65.96
2023-02-13T16:02:42.956Z,66.73
2023-02-13T16:05:12.791Z,66.69
2023-02-13T16:07:51.138Z,67.20
2023-02-13T16:10:32.684Z,68.01
2023-02-13T16:13:03.186Z,68.54
2023-02-13T16:15:32.059Z,68.85
2023-02-13T16:17:59.353Z,69.45
2023-02-13T16:20:28.839Z,69.56
2023-02-13T16:23:02.943Z,70.36
2023-02-13T16:25:37.354Z,70.06
2023-02-13T16:28:09.753Z,70.79
2023-02-13T16:30:41.157Z,70.83
2023-02-13T16:33:16.544Z,71.00
2023-02-13T16:35:50.907Z,71.50
2023-02-13T16:41:19.878Z,71.71
2023-02-13T16:43:52.031Z,72.29
2023-02-13T16:46:24.375Z,72.87
2023-02-13T16:48:56.824Z,72.52
2023-02-13T16:51:52.474Z,73.45
2023-02-13T16:54:32.226Z,73.63
2023-02-13T16:57:15.780Z,74.54
2023-02-13T16:59:58.228Z,74.87
2023-02-13T17:02:30.285Z,74.80
2023-02-13T17:04:56.813Z,74.78
2023-02-13T17:07:23.350Z,75.21
2023-02-13T17:10:18.848Z,75.17
2023-02-13T17:15:25.991Z,76.39
2023-02-13T17:17:53.722Z,76.75
2023-02-13T17:20:26.172Z,77.36
2023-02-13T17:22:55.041Z,76.99
2023-02-13T17:25:25.469Z,77.68
2023-02-13T17:27:55.482Z,78.20
2023-02-13T17:30:28.174Z,78.43
2023-02-13T17:35:32.851Z,78.71
2023-02-13T17:37:59.752Z,78.82
2023-02-13T17:40:29.656Z,79.15
2023-02-13T17:42:57.314Z,79.18
2023-02-13T17:45:26.706Z,80.29
2023-02-13T17:47:53.757Z,80.05
2023-02-13T17:50:21.303Z,80.19
2023-02-13T17:52:49.138Z,80.59
2023-02-13T17:55:21.692Z,80.87
2023-02-13T17:57:49.257Z,80.45
2023-02-13T18:00:16.862Z,80.34
2023-02-13T18:02:43.823Z,79.96
2023-02-13T18:05:11.111Z,79.86
2023-02-13T18:07:39.524Z,80.25
2023-02-13T18:10:11.462Z,81.01
2023-02-13T18:12:39.852Z,81.09
2023-02-13T18:15:06.677Z,81.37
2023-02-13T18:17:33.175Z,81.75
2023-02-13T18:19:59.685Z,81.57
2023-02-13T18:22:26.445Z,81.60
2023-02-13T18:24:53.050Z,81.58
2023-02-13T18:27:19.561Z,81.47
2023-02-13T18:29:46.349Z,81.77
2023-02-13T18:32:13.016Z,82.10
2023-02-13T18:34:40.387Z,82.00
2023-02-13T18:37:07.833Z,81.91
2023-02-13T18:39:34.971Z,82.59
2023-02-13T18:42:01.672Z,82.34
2023-02-13T18:44:29.095Z,82.30
2023-02-13T18:46:55.965Z,82.78
2023-02-13T18:49:22.677Z,83.09
2023-02-13T18:51:49.385Z,83.40
2023-02-13T18:54:18.028Z,84.41
2023-02-13T18:56:45.739Z,84.46
2023-02-13T18:59:12.273Z,84.55
2023-02-13T19:01:39.216Z,84.70
2023-02-13T19:04:06.512Z,84.91
2023-02-13T19:06:33.183Z,85.04
2023-02-13T19:08:59.819Z,84.81
2023-02-13T19:11:27.712Z,85.61
2023-02-13T19:13:56.264Z,85.99
2023-02-13T19:16:23.114Z,86.67
2023-02-13T19:18:53.145Z,87.04
2023-02-13T19:21:21.455Z,86.56
2023-02-13T19:23:48.340Z,86.29
2023-02-13T19:26:18.054Z,86.50
2023-02-13T19:28:45.046Z,86.58
2023-02-13T19:31:20.504Z,86.57
2023-02-13T19:33:48.063Z,86.54
2023-02-13T19:36:19.420Z,86.68
2023-02-13T19:38:46.856Z,86.54
2023-02-13T19:41:17.961Z,86.60
2023-02-13T19:43:50.869Z,86.69
2023-02-13T19:46:19.296Z,87.28
2023-02-13T19:48:49.578Z,87.07
2023-02-13T19:53:57.900Z,87.31
2023-02-13T19:56:27.199Z,87.86
2023-02-13T19:58:54.659Z,88.02
2023-02-13T20:01:23.328Z,88.46
2023-02-13T20:03:50.328Z,88.36
2023-02-13T20:06:23.722Z,88.35
2023-02-13T20:08:52.318Z,88.41
2023-02-13T20:11:21.372Z,87.51
2023-02-13T20:13:52.407Z,87.86
2023-02-13T20:16:18.995Z,87.72
2023-02-13T20:18:45.612Z,88.04
2023-02-13T20:21:14.517Z,88.01
2023-02-13T20:23:42.306Z,88.54
2023-02-13T20:26:14.006Z,87.92
2023-02-13T20:28:42.033Z,88.29
2023-02-13T20:31:11.033Z,88.53
2023-02-13T20:33:38.847Z,88.00
2023-02-13T20:36:14.228Z,87.85
2023-02-13T20:38:41.955Z,88.19
2023-02-13T20:41:10.838Z,88.04
2023-02-13T20:43:37.738Z,88.28
2023-02-13T20:46:05.499Z,88.22
2023-02-13T20:48:32.114Z,88.49
2023-02-13T20:51:03.591Z,87.99
2023-02-13T20:53:30.882Z,88.65
2023-02-13T20:56:24.932Z,88.63
2023-02-13T20:58:54.865Z,89.03
2023-02-13T21:01:27.335Z,89.20
2023-02-13T21:03:55.822Z,89.74
2023-02-13T21:06:25.814Z,88.99
2023-02-13T21:11:24.770Z,88.96
2023-02-13T21:13:51.393Z,89.15
2023-02-13T21:16:24.045Z,90.67
2023-02-13T21:18:56.317Z,89.84
2023-02-13T21:23:58.251Z,89.63
2023-02-13T21:26:26.070Z,89.66
2023-02-13T21:28:53.275Z,90.15
2023-02-13T21:31:25.530Z,90.79
2023-02-13T21:33:52.636Z,90.99
2023-02-13T21:36:19.559Z,90.86
2023-02-13T21:38:46.082Z,90.91
2023-02-13T21:41:15.505Z,90.81
2023-02-13T21:43:46.498Z,90.45
2023-02-13T21:46:18.679Z,90.09
2023-02-13T21:48:45.935Z,90.27
2023-02-13T21:51:15.478Z,90.76
2023-02-13T21:53:42.926Z,90.34
2023-02-13T21:56:15.599Z,90.31
2023-02-13T21:58:43.681Z,90.11
2023-02-13T22:01:26.795Z,90.07
2023-02-13T22:04:00.525Z,90.79
2023-02-13T22:09:05.041Z,90.76
2023-02-13T22:14:17.066Z,91.50
2023-02-13T22:16:45.273Z,91.71
2023-02-13T22:19:14.392Z,91.48
2023-02-13T22:21:41.225Z,92.05
2023-02-13T22:24:07.837Z,91.83
2023-02-13T22:26:37.287Z,91.29
2023-02-13T22:29:06.688Z,90.99
2023-02-13T22:31:33.704Z,91.28
2023-02-13T22:34:04.998Z,91.99
2023-02-13T22:36:41.014Z,91.15
2023-02-13T22:39:09.448Z,91.23
2023-02-13T22:41:36.373Z,91.03
2023-02-13T22:44:02.914Z,90.98
2023-02-13T22:46:31.652Z,91.31
2023-02-13T22:48:59.498Z,91.40
2023-02-13T22:51:29.481Z,91.63
2023-02-13T22:53:57.686Z,91.15
2023-02-13T22:56:26.584Z,91.09
2023-02-13T22:58:53.385Z,90.92
2023-02-13T23:01:22.611Z,90.93
2023-02-13T23:06:31.336Z,91.05
2023-02-13T23:08:57.900Z,90.54
2023-02-13T23:11:46.162Z,91.67
2023-02-13T23:14:13.420Z,91.53
2023-02-13T23:16:59.582Z,91.57
2023-02-13T23:19:27.695Z,90.94
2023-02-13T23:21:54.372Z,90.91
2023-02-13T23:24:21.651Z,91.49
2023-02-13T23:26:48.200Z,91.62
2023-02-13T23:29:14.735Z,91.99
2023-02-13T23:31:41.312Z,92.42
2023-02-13T23:36:41.363Z,91.92
2023-02-13T23:39:07.953Z,91.86
2023-02-13T23:41:34.436Z,92.79
2023-02-13T23:44:01.007Z,91.99
2023-02-13T23:46:27.699Z,91.68
2023-02-13T23:48:54.260Z,91.41
2023-02-13T23:51:23.122Z,91.22
2023-02-13T23:53:49.636Z,91.48
2023-02-13T23:56:16.168Z,90.72
